Time;durP1;ratioP1;P1;durP2;ratioP2;P2;SDS_P1;SDS_P2;PMS_P1;PMS_P2;Temp;Humidity;BMP_temperature;BMP_pressure;BME280_temperature;BME280_humidity;BME280_pressure;Samples;Min_cycle;Max_cycle;Signal;HPM_P1;HPM_P2
2024/03/05 00:01:21;;;;;;;;;;;;;;;;;;137184;1270;22515;-79
2024/03/05 00:04:22;;;;;;;;;;;;;;;;;;137031;1270;23031;-81
2024/03/05 00:07:23;;;;;;;;;;;;;;;;;;137863;1270;22477;-81
2024/03/05 00:10:24;;;;;;;;;;;;;;;;;;137230;1270;22498;-81
2024/03/05 00:13:25;;;;;;;;;;;;;;;;;;137221;1271;22864;-81
2024/03/05 00:16:27;;;;;;;;;;;;;;;;;;137715;1270;22523;-81
2024/03/05 00:19:28;;;;;;;;;;;;;;;;;;137205;1270;22886;-80
2024/03/05 00:22:29;;;;;;;;;;;;;;;;;;137108;1271;22569;-80
2024/03/05 00:25:31;;;;;;;;;;;;;;;;;;137520;1271;22711;-81
2024/03/05 00:28:32;;;;;;;;;;;;;;;;;;137454;1271;24243;-81
2024/03/05 00:31:34;;;;;;;;;;;;;;;;;;137158;1270;22500;-80
2024/03/05 00:34:35;;;;;;;;;;;;;;;;;;137378;1270;22531;-81
2024/03/05 00:37:36;;;;;;;;;;;;;;;;;;137549;1270;22577;-82
2024/03/05 00:40:37;;;;;;;;;;;;;;;;;;137185;1270;22527;-82
2024/03/05 00:43:39;;;;;;;;;;;;;;;;;;137104;1271;22654;-82
2024/03/05 00:46:41;;;;;;;;;;;;;;;;;;137726;1270;22494;-80
2024/03/05 00:49:42;;;;;;;;;;;;;;;;;;137182;1270;22604;-79
2024/03/05 00:52:43;;;;;;;;;;;;;;;;;;137134;1271;22538;-80
2024/03/05 00:55:44;;;;;;;;;;;;;;;;;;137717;1270;22536;-82
2024/03/05 00:58:45;;;;;;;;;;;;;;;;;;137204;1271;22545;-80
2024/03/05 01:01:46;;;;;;;;;;;;;;;;;;137261;1270;22602;-81
2024/03/05 01:04:47;;;;;;;;;;;;;;;;;;137600;1271;22532;-81
2024/03/05 01:07:48;;;;;;;;;;;;;;;;;;137487;1270;22527;-80
2024/03/05 01:10:50;;;;;;;;;;;;;;;;;;137315;1270;22978;-84
2024/03/05 01:13:51;;;;;;;;;;;;;;;;;;137602;1270;22514;-79
2024/03/05 01:16:52;;;;;;;;;;;;;;;;;;137733;1271;22472;-82
2024/03/05 01:19:53;;;;;;;;;;;;;;;;;;137070;1270;250734;-80
2024/03/05 01:22:54;;;;;;;;;;;;;;;;;;137511;1270;22574;-79
2024/03/05 01:25:55;;;;;;;;;;;;;;;;;;137901;1270;22289;-79
2024/03/05 01:28:56;;;;;;;;;;;;;;;;;;137205;1270;22545;-80
2024/03/05 01:31:59;;;;;;;;;;;;;;;;;;137196;1270;22522;-80
2024/03/05 01:35:02;;;;;;;;;;;;;;;;;;137841;1270;22376;-79
2024/03/05 01:38:03;;;;;;;;;;;;;;;;;;137460;1270;22868;-80
2024/03/05 01:41:04;;;;;;;;;;;;;;;;;;137329;1270;22528;-79
2024/03/05 01:44:05;;;;;;;;;;;;;;;;;;137584;1270;22511;-79
2024/03/05 01:47:07;;;;;;;;;;;;;;;;;;137465;1270;22548;-80
2024/03/05 01:50:09;;;;;;;;;;;;;;;;;;137182;1270;22989;-81
2024/03/05 01:53:14;;;;;;;;;;;;;;;;;;137259;1270;22520;-80
2024/03/05 01:56:17;;;;;;;;;;;;;;;;;;137636;1270;22497;-80
2024/03/05 01:59:18;;;;;;;;;;;;;;;;;;137070;1270;23021;-79
2024/03/05 02:02:19;;;;;;;;;;;;;;;;;;137174;1270;22545;-80
2024/03/05 02:05:20;;;;;;;;;;;;;;;;;;137809;1270;22918;-82
2024/03/05 02:08:22;;;;;;;;;;;;;;;;;;137207;1270;22496;-80
2024/03/05 02:11:23;;;;;;;;;;;;;;;;;;137061;1267;22539;-81
2024/03/05 02:14:24;;;;;;;;;;;;;;;;;;137842;1270;22537;-80
2024/03/05 02:17:26;;;;;;;;;;;;;;;;;;137136;1260;22547;-81
2024/03/05 02:20:28;;;;;;;;;;;;;;;;;;137220;1270;22501;-81
2024/03/05 02:23:29;;;;;;;;;;;;;;;;;;137590;1270;22534;-79
2024/03/05 02:26:31;;;;;;;;;;;;;;;;;;137411;1270;24240;-80
2024/03/05 02:29:34;;;;;;;;;;;;;;;;;;137165;1270;22529;-81
2024/03/05 02:32:35;;;;;;;;;;;;;;;;;;137238;1270;22521;-80
2024/03/05 02:35:36;;;;;;;;;;;;;;;;;;137598;1270;22502;-81
2024/03/05 02:38:38;;;;;;;;;;;;;;;;;;137099;1270;23033;-80
2024/03/05 02:41:40;;;;;;;;;;;;;;;;;;137175;1270;22535;-81
2024/03/05 02:44:41;;;;;;;;;;;;;;;;;;137698;1270;22527;-81
2024/03/05 02:47:43;;;;;;;;;;;;;;;;;;137252;1270;22592;-81
2024/03/05 02:50:44;;;;;;;;;;;;;;;;;;137180;1270;22507;-80
2024/03/05 02:53:45;;;;;;;;;;;;;;;;;;137706;1270;22562;-81
2024/03/05 02:56:46;;;;;;;;;;;;;;;;;;137072;1270;23332;-80
2024/03/05 02:59:47;;;;;;;;;;;;;;;;;;137224;1270;23048;-80
2024/03/05 03:02:48;;;;;;;;;;;;;;;;;;137563;1270;22515;-83
2024/03/05 03:05:50;;;;;;;;;;;;;;;;;;137428;1270;22540;-82
2024/03/05 03:08:51;;;;;;;;;;;;;;;;;;137296;1267;22509;-81
2024/03/05 03:11:52;;;;;;;;;;;;;;;;;;137350;1270;22523;-83
2024/03/05 03:14:54;;;;;;;;;;;;;;;;;;137659;1270;22560;-79
2024/03/05 03:17:55;;;;;;;;;;;;;;;;;;137239;1270;23123;-83
2024/03/05 03:20:56;;;;;;;;;;;;;;;;;;137277;1270;22593;-81
2024/03/05 03:23:57;;;;;;;;;;;;;;;;;;137769;1270;22512;-82
2024/03/05 03:26:58;;;;;;;;;;;;;;;;;;137270;1270;22639;-83
2024/03/05 03:29:59;;;;;;;;;;;;;;;;;;137232;1270;22526;-85
2024/03/05 03:33:01;;;;;;;;;;;;;;;;;;137717;1270;22496;-83
2024/03/05 03:36:02;;;;;;;;;;;;;;;;;;137114;1270;22529;-82
2024/03/05 03:39:03;;;;;;;;;;;;;;;;;;137290;1270;22488;-82
2024/03/05 03:42:04;;;;;;;;;;;;;;;;;;137677;1270;25542;-82
2024/03/05 03:45:07;;;;;;;;;;;;;;;;;;137471;1270;22516;-82
2024/03/05 03:48:09;;;;;;;;;;;;;;;;;;137278;1270;22531;-82
2024/03/05 03:51:10;;;;;;;;;;;;;;;;;;137575;1270;22539;-82
2024/03/05 03:54:11;;;;;;;;;;;;;;;;;;137564;1270;22548;-84
2024/03/05 03:57:12;;;;;;;;;;;;;;;;;;137305;1270;22494;-83
2024/03/05 04:00:16;;;;;;;;;;;;;;;;;;137397;1270;22553;-84
2024/03/05 04:03:17;;;;;;;;;;;;;;;;;;137761;1270;22520;-83
2024/03/05 04:06:19;;;;;;;;;;;;;;;;;;137214;1270;22522;-83
2024/03/05 04:09:23;;;;;;;;;;;;;;;;;;137440;1270;22553;-83
2024/03/05 04:12:24;;;;;;;;;;;;;;;;;;137902;1270;22499;-85
2024/03/05 04:15:25;;;;;;;;;;;;;;;;;;137673;1270;22592;-83
2024/03/05 04:18:26;;;;;;;;;;;;;;;;;;137729;1270;22535;-83
2024/03/05 04:21:27;;;;;;;;;;;;;;;;;;137737;1270;22554;-81
2024/03/05 04:24:30;;;;;;;;;;;;;;;;;;137487;1270;22520;-84
2024/03/05 04:27:32;;;;;;;;;;;;;;;;;;137355;1270;22538;-85
2024/03/05 04:30:34;;;;;;;;;;;;;;;;;;137367;1270;24192;-85
2024/03/05 04:33:36;;;;;;;;;;;;;;;;;;137686;1270;22501;-84
2024/03/05 04:36:38;;;;;;;;;;;;;;;;;;137388;1270;22503;-83
2024/03/05 04:39:39;;;;;;;;;;;;;;;;;;137372;1270;22574;-83
2024/03/05 04:42:40;;;;;;;;;;;;;;;;;;137802;1259;22507;-83
2024/03/05 04:45:41;;;;;;;;;;;;;;;;;;137870;1270;22847;-83
2024/03/05 04:48:42;;;;;;;;;;;;;;;;;;137387;1270;22526;-84
2024/03/05 04:51:46;;;;;;;;;;;;;;;;;;137681;1270;22504;-84
2024/03/05 04:54:48;;;;;;;;;;;;;;;;;;137544;1270;22541;-88
2024/03/05 04:57:52;;;;;;;;;;;;;;;;;;137160;1270;23012;-82
2024/03/05 05:00:53;;;;;;;;;;;;;;;;;;137882;1270;22315;-81
2024/03/05 05:03:54;;;;;;;;;;;;;;;;;;137749;1270;22556;-82
2024/03/05 05:06:56;;;;;;;;;;;;;;;;;;137916;1267;22301;-83
2024/03/05 05:09:57;;;;;;;;;;;;;;;;;;137849;1270;22240;-82
2024/03/05 05:12:58;;;;;;;;;;;;;;;;;;137813;1270;22325;-82
2024/03/05 05:15:59;;;;;;;;;;;;;;;;;;137408;1270;22999;-82
2024/03/05 05:19:04;;;;;;;;;;;;;;;;;;137752;1270;23039;-80
2024/03/05 05:22:05;;;;;;;;;;;;;;;;;;137809;1270;22917;-82
2024/03/05 05:25:08;;;;;;;;;;;;;;;;;;137455;1270;22512;-82
2024/03/05 05:28:09;;;;;;;;;;;;;;;;;;137488;1270;23731;-81
2024/03/05 05:31:11;;;;;;;;;;;;;;;;;;137744;1262;22639;-81
2024/03/05 05:34:12;;;;;;;;;;;;;;;;;;137877;1270;22419;-82
2024/03/05 05:37:15;;;;;;;;;;;;;;;;;;137072;1270;22929;-81
2024/03/05 05:40:16;;;;;;;;;;;;;;;;;;137811;1270;22351;-82
2024/03/05 05:43:17;;;;;;;;;;;;;;;;;;136994;1270;22965;-82
2024/03/05 05:46:21;;;;;;;;;;;;;;;;;;137903;1270;22456;-82
2024/03/05 05:49:23;;;;;;;;;;;;;;;;;;137847;1270;22373;-80
2024/03/05 05:52:24;;;;;;;;;;;;;;;;;;137819;1270;22811;-81
2024/03/05 05:55:25;;;;;;;;;;;;;;;;;;137846;1270;22316;-81
2024/03/05 05:58:26;;;;;;;;;;;;;;;;;;137852;1262;22676;-82
2024/03/05 06:01:28;;;;;;;;;;;;;;;;;;137498;1270;22487;-83
2024/03/05 06:04:29;;;;;;;;;;;;;;;;;;137308;1270;23193;-82
2024/03/05 06:07:30;;;;;;;;;;;;;;;;;;137847;1270;22995;-81
2024/03/05 06:10:32;;;;;;;;;;;;;;;;;;137776;1270;22360;-80
2024/03/05 06:13:33;;;;;;;;;;;;;;;;;;137822;1270;22310;-81
2024/03/05 06:16:34;;;;;;;;;;;;;;;;;;137432;1270;22883;-80
2024/03/05 06:19:37;;;;;;;;;;;;;;;;;;137814;1270;22280;-80
2024/03/05 06:22:38;;;;;;;;;;;;;;;;;;137799;1270;22283;-80
2024/03/05 06:25:40;;;;;;;;;;;;;;;;;;137821;1270;22289;-81
2024/03/05 06:28:42;;;;;;;;;;;;;;;;;;137792;1270;22351;-81
2024/03/05 06:31:43;;;;;;;;;;;;;;;;;;137819;1270;22311;-80
2024/03/05 06:34:44;;;;;;;;;;;;;;;;;;137784;1270;22443;-82
2024/03/05 06:37:46;;;;;;;;;;;;;;;;;;137856;1270;22327;-81
2024/03/05 06:40:47;;;;;;;;;;;;;;;;;;137658;1270;22854;-81
2024/03/05 06:43:49;;;;;;;;;;;;;;;;;;137529;1270;22553;-82
2024/03/05 06:46:50;;;;;;;;;;;;;;;;;;137568;1270;22543;-80
2024/03/05 06:49:54;;;;;;;;;;;;;;;;;;137702;1270;22623;-81
2024/03/05 06:59:34;;;;;;;;;;;;;;;;;;137695;1270;22608;-79
2024/03/05 07:02:35;;;;;;;;;;;;;;;;;;137871;1259;22508;-80
2024/03/05 07:05:36;;;;;;;;;;;;;;;;;;137958;1270;22554;-82
2024/03/05 07:08:38;;;;;;;;;;;;;;;;;;137903;1270;22332;-82
2024/03/05 07:11:39;;;;;;;;;;;;;;;;;;137906;1270;22343;-83
2024/03/05 07:14:40;;;;;;;;;;;;;;;;;;137876;1259;22302;-84
2024/03/05 07:17:43;;;;;;;;;;;;;;;;;;137816;1270;22343;-84
2024/03/05 07:20:45;;;;;;;;;;;;;;;;;;137804;1270;22440;-80
2024/03/05 07:23:46;;;;;;;;;;;;;;;;;;137808;1270;22390;-82
2024/03/05 07:26:48;;;;;;;;;;;;;;;;;;137744;1270;22503;-81
2024/03/05 07:29:49;;;;;;;;;;;;;;;;;;137769;1270;22343;-81
2024/03/05 07:32:50;;;;;;;;;;;;;;;;;;137815;1270;22324;-81
2024/03/05 07:35:51;;;;;;;;;;;;;;;;;;137783;1270;22392;-80
2024/03/05 07:38:55;;;;;;;;;;;;;;;;;;137846;1270;22269;-80
2024/03/05 07:41:57;;;;;;;;;;;;;;;;;;137816;1270;22337;-82
2024/03/05 07:44:58;;;;;;;;;;;;;;;;;;137825;1265;22276;-81
2024/03/05 07:47:59;;;;;;;;;;;;;;;;;;137782;1270;22354;-82
2024/03/05 07:51:00;;;;;;;;;;;;;;;;;;137814;1270;23072;-83
2024/03/05 07:54:01;;;;;;;;;;;;;;;;;;137818;1270;22342;-83
2024/03/05 07:57:02;;;;;;;;;;;;;;;;;;137820;1270;23132;-82
2024/03/05 08:00:08;;;;;;;;;;;;;;;;;;137822;1270;22724;-81
2024/03/05 08:03:10;;;;;;;;;;;;;;;;;;137834;1270;22441;-82
2024/03/05 08:06:11;;;;;;;;;;;;;;;;;;137799;1270;22267;-83
2024/03/05 08:09:13;;;;;;;;;;;;;;;;;;137847;1270;22723;-81
2024/03/05 08:12:14;;;;;;;;;;;;;;;;;;137806;1270;22369;-82
2024/03/05 08:15:15;;;;;;;;;;;;;;;;;;137805;1270;22336;-82
2024/03/05 08:18:16;;;;;;;;;;;;;;;;;;137812;1270;23011;-82
2024/03/05 08:21:17;;;;;;;;;;;;;;;;;;137738;1270;23207;-80
2024/03/05 08:24:18;;;;;;;;;;;;;;;;;;137790;1270;22873;-81
2024/03/05 08:27:20;;;;;;;;;;;;;;;;;;137809;1270;22326;-80
2024/03/05 08:30:21;;;;;;;;;;;;;;;;;;137818;1270;22758;-81
2024/03/05 08:33:24;;;;;;;;;;;;;;;;;;137799;1270;22903;-80
2024/03/05 08:36:25;;;;;;;;;;;;;;;;;;137756;1270;22516;-81
2024/03/05 08:39:26;;;;;;;;;;;;;;;;;;137767;1270;22577;-80
2024/03/05 08:42:27;;;;;;;;;;;;;;;;;;137810;1270;22331;-80
2024/03/05 08:45:29;;;;;;;;;;;;;;;;;;137791;1270;22348;-80
2024/03/05 08:48:32;;;;;;;;;;;;;;;;;;137446;1270;22535;-80
2024/03/05 08:51:34;;;;;;;;;;;;;;;;;;137680;1270;22499;-81
2024/03/05 08:54:35;;;;;;;;;;;;;;;;;;137529;1270;22500;-82
2024/03/05 08:57:37;;;;;;;;;;;;;;;;;;137431;1270;22565;-81
2024/03/05 09:00:38;;;;;;;;;;;;;;;;;;137714;1270;22548;-81
2024/03/05 09:03:39;;;;;;;;;;;;;;;;;;137388;1271;22480;-81
2024/03/05 09:06:43;;;;;;;;;;;;;;;;;;137820;1271;22812;-81
2024/03/05 09:09:44;;;;;;;;;;;;;;;;;;137783;1270;22326;-81
2024/03/05 09:12:45;;;;;;;;;;;;;;;;;;137811;1270;22287;-81
2024/03/05 09:15:46;;;;;;;;;;;;;;;;;;137772;1270;22333;-80
2024/03/05 09:19:15;;;;;;;;;;;;;;;;;;133253;1307;544125;-80
2024/03/05 09:22:17;;;;;;;;;;;;;;;;;;136440;1282;23068;-79
2024/03/05 09:25:20;;;;;;;;;;;;;;;;;;136684;1282;22398;-80
2024/03/05 09:28:22;;;;;;;;;;;;;;;;;;136850;1279;22255;-80
2024/03/05 09:31:25;;;;;;;;;;;;;;;;;;135986;1277;252952;-78
2024/03/05 09:34:27;;;;;;;;;;;;;;;;;;137439;1275;22816;-80
2024/03/05 09:37:30;;;;;;;;;;;;;;;;;;137450;1275;22315;-80
2024/03/05 09:40:34;;;;;;;;;;;;;;;;;;137492;1275;22332;-80
2024/03/05 09:43:36;;;;;;;;;;;;;;;;;;137419;1275;22382;-81
2024/03/05 09:46:39;;;;;;;;;;;;;;;;;;137386;1275;22405;-81
2024/03/05 09:49:42;;;;;;;;;;;;;;;;;;137357;1275;22885;-81
2024/03/05 09:52:46;;;;;;;;;;;;;;;;;;137122;1275;22976;-80
2024/03/05 09:55:49;;;;;;;;;;;;;;;;;;137318;1275;22640;-80
2024/03/05 09:58:52;;;;;;;;;;;;;;;;;;137323;1275;22328;-81
2024/03/05 10:01:54;;;;;;;;;;;;;;;;;;137310;1275;22777;-80
2024/03/05 10:04:58;;;;;;;;;;;;;;;;;;136861;1277;22416;-79
2024/03/05 10:08:01;;;;;;;;;;;;;;;;;;136846;1279;22704;-78
2024/03/05 10:11:04;;;;;;;;;;;;;;;;;;136861;1279;22551;-80
2024/03/05 10:14:07;;;;;;;;;;;;;;;;;;136841;1279;23057;-80
2024/03/05 10:17:10;;;;;;;;;;;;;;;;;;136811;1279;22452;-80
2024/03/05 10:20:13;;;;;;;;;;;;;;;;;;136843;1279;22427;-80
2024/03/05 10:23:15;;;;;;;;;;;;;;;;;;137124;1275;22441;-79
2024/03/05 10:26:18;;;;;;;;;;;;;;;;;;137286;1269;22364;-79
2024/03/05 10:29:20;;;;;;;;;;;;;;;;;;137234;1275;22381;-80
2024/03/05 10:32:25;;;;;;;;;;;;;;;;;;137282;1275;22274;-80
2024/03/05 10:35:29;;;;;;;;;;;;;;;;;;137577;1272;22342;-80
2024/03/05 10:38:31;;;;;;;;;;;;;;;;;;137507;1272;22797;-80
2024/03/05 10:41:34;;;;;;;;;;;;;;;;;;137520;1272;22318;-81
2024/03/05 10:44:36;;;;;;;;;;;;;;;;;;137533;1272;22752;-81
2024/03/05 10:47:39;;;;;;;;;;;;;;;;;;137533;1272;22381;-80
2024/03/05 10:50:43;;;;;;;;;;;;;;;;;;137578;1272;22359;-79
2024/03/05 10:53:47;;;;;;;;;;;;;;;;;;137619;1272;22874;-80
2024/03/05 10:56:52;;;;;;;;;;;;;;;;;;137566;1272;22381;-80
2024/03/05 10:59:54;;;;;;;;;;;;;;;;;;137559;1272;22320;-80
2024/03/05 11:02:57;;;;;;;;;;;;;;;;;;137607;1272;22338;-81
2024/03/05 11:05:59;;;;;;;;;;;;;;;;;;137637;1272;22326;-82
2024/03/05 11:09:02;;;;;;;;;;;;;;;;;;137642;1260;22290;-80
2024/03/05 11:12:06;;;;;;;;;;;;;;;;;;137514;1272;22497;-81
2024/03/05 11:15:12;;;;;;;;;;;;;;;;;;137570;1272;22334;-77
2024/03/05 11:18:15;;;;;;;;;;;;;;;;;;137537;1272;22396;-77
2024/03/05 11:21:17;;;;;;;;;;;;;;;;;;137514;1272;22252;-78
2024/03/05 11:24:21;;;;;;;;;;;;;;;;;;137559;1272;23293;-77
2024/03/05 11:27:23;;;;;;;;;;;;;;;;;;137495;1272;22317;-76
2024/03/05 11:30:26;;;;;;;;;;;;;;;;;;137482;1272;22362;-78
2024/03/05 11:33:45;;;;;;;;;;;;;;;;;;132347;1312;544134;-76
2024/03/05 11:36:48;;;;;;;;;;;;;;;;;;136423;1287;22780;-75
2024/03/05 11:39:51;;;;;;;;;;;;;;;;;;136876;1279;22337;-75
2024/03/05 11:42:54;;;;;;;;;;;;;;;;;;136880;1279;22468;-76
2024/03/05 11:45:56;;;;;;;;;;;;;;;;;;136762;1276;162241;-76
2024/03/05 11:48:59;;;;;;;;;;;;;;;;;;137052;1277;22314;-76
2024/03/05 11:52:01;;;;;;;;;;;;;;;;;;137030;1277;22338;-76
2024/03/05 11:55:05;;;;;;;;;;;;;;;;;;137081;1277;22294;-77
2024/03/05 11:58:09;;;;;;;;;;;;;;;;;;137039;1277;22386;-76
2024/03/05 12:01:13;;;;;;;;;;;;;;;;;;137084;1278;22449;-77
2024/03/05 12:04:16;;;;;;;;;;;;;;;;;;137011;1277;22324;-76
2024/03/05 12:07:18;;;;;;;;;;;;;;;;;;137003;1277;22705;-76
2024/03/05 12:10:23;;;;;;;;;;;;;;;;;;137080;1277;22262;-76
2024/03/05 12:13:27;;;;;;;;;;;;;;;;;;137055;1277;22341;-76
2024/03/05 12:16:31;;;;;;;;;;;;;;;;;;136247;1278;22582;-76
2024/03/05 12:19:34;;;;;;;;;;;;;;;;;;136581;1277;22613;-76
2024/03/05 12:22:37;;;;;;;;;;;;;;;;;;137025;1278;22891;-76
2024/03/05 12:25:40;;;;;;;;;;;;;;;;;;137235;1277;22340;-76
2024/03/05 12:28:44;;;;;;;;;;;;;;;;;;137210;1278;22338;-76
2024/03/05 12:31:50;;;;;;;;;;;;;;;;;;137228;1277;22439;-76
2024/03/05 12:34:52;;;;;;;;;;;;;;;;;;136782;1278;22542;-76
2024/03/05 12:37:55;;;;;;;;;;;;;;;;;;137222;1277;22340;-77
2024/03/05 12:40:58;;;;;;;;;;;;;;;;;;137114;1277;22331;-76
2024/03/05 12:44:00;;;;;;;;;;;;;;;;;;137085;1277;22352;-75
2024/03/05 12:47:03;;;;;;;;;;;;;;;;;;137043;1278;22959;-76
2024/03/05 12:50:05;;;;;;;;;;;;;;;;;;137056;1278;22354;-76
2024/03/05 12:53:09;;;;;;;;;;;;;;;;;;136971;1276;22675;-75
2024/03/05 12:56:12;;;;;;;;;;;;;;;;;;137028;1278;22863;-75
2024/03/05 12:59:14;;;;;;;;;;;;;;;;;;137033;1278;22363;-76
2024/03/05 13:02:17;;;;;;;;;;;;;;;;;;136981;1266;22436;-75
2024/03/05 13:05:20;;;;;;;;;;;;;;;;;;136939;1278;22745;-76
2024/03/05 13:08:22;;;;;;;;;;;;;;;;;;136948;1277;22313;-75
2024/03/05 13:11:25;;;;;;;;;;;;;;;;;;136966;1277;22277;-76
2024/03/05 13:14:28;;;;;;;;;;;;;;;;;;136883;1278;22351;-76
2024/03/05 13:17:31;;;;;;;;;;;;;;;;;;136904;1278;22272;-76
2024/03/05 13:20:33;;;;;;;;;;;;;;;;;;136952;1278;22347;-77
2024/03/05 13:23:36;;;;;;;;;;;;;;;;;;136956;1277;22284;-77
2024/03/05 13:26:39;;;;;;;;;;;;;;;;;;136924;1277;22296;-76
2024/03/05 13:29:41;;;;;;;;;;;;;;;;;;136949;1278;22351;-77
2024/03/05 13:32:45;;;;;;;;;;;;;;;;;;136949;1278;22421;-78
2024/03/05 13:35:48;;;;;;;;;;;;;;;;;;136967;1278;22932;-78
2024/03/05 13:38:50;;;;;;;;;;;;;;;;;;136992;1277;22875;-78
2024/03/05 13:41:53;;;;;;;;;;;;;;;;;;137070;1277;22327;-78
2024/03/05 13:44:56;;;;;;;;;;;;;;;;;;137014;1278;22756;-78
2024/03/05 13:47:58;;;;;;;;;;;;;;;;;;137049;1278;23089;-78
2024/03/05 13:51:02;;;;;;;;;;;;;;;;;;137098;1278;23056;-78
2024/03/05 13:54:06;;;;;;;;;;;;;;;;;;137065;1278;22342;-78
2024/03/05 13:57:10;;;;;;;;;;;;;;;;;;137044;1277;22336;-78
2024/03/05 14:00:14;;;;;;;;;;;;;;;;;;137058;1278;22395;-78
2024/03/05 14:03:16;;;;;;;;;;;;;;;;;;137055;1277;22425;-76
2024/03/05 14:06:19;;;;;;;;;;;;;;;;;;136988;1278;22344;-77
2024/03/05 14:09:21;;;;;;;;;;;;;;;;;;137043;1278;22924;-77
2024/03/05 14:12:24;;;;;;;;;;;;;;;;;;137041;1278;22350;-80
2024/03/05 14:15:26;;;;;;;;;;;;;;;;;;137245;1275;23565;-75
2024/03/05 14:18:29;;;;;;;;;;;;;;;;;;137262;1275;22414;-78
2024/03/05 14:21:33;;;;;;;;;;;;;;;;;;137154;1275;22781;-75
2024/03/05 14:24:38;;;;;;;;;;;;;;;;;;137122;1275;22401;-74
2024/03/05 14:27:41;;;;;;;;;;;;;;;;;;137087;1275;22334;-74
2024/03/05 14:30:43;;;;;;;;;;;;;;;;;;137109;1275;22574;-75
2024/03/05 14:33:46;;;;;;;;;;;;;;;;;;137093;1275;22349;-74
2024/03/05 14:36:49;;;;;;;;;;;;;;;;;;137148;1275;22300;-75
2024/03/05 14:39:52;;;;;;;;;;;;;;;;;;137167;1275;23103;-75
2024/03/05 14:42:54;;;;;;;;;;;;;;;;;;137251;1275;22349;-77
2024/03/05 14:45:57;;;;;;;;;;;;;;;;;;137275;1275;22281;-76
2024/03/05 14:48:59;;;;;;;;;;;;;;;;;;137274;1275;22624;-77
2024/03/05 14:52:02;;;;;;;;;;;;;;;;;;137246;1275;22352;-77
2024/03/05 14:55:09;;;;;;;;;;;;;;;;;;137239;1275;23228;-76
2024/03/05 14:58:12;;;;;;;;;;;;;;;;;;137233;1275;22280;-76
2024/03/05 15:01:14;;;;;;;;;;;;;;;;;;137223;1275;22426;-76
2024/03/05 15:04:17;;;;;;;;;;;;;;;;;;137227;1275;22331;-76
2024/03/05 15:07:19;;;;;;;;;;;;;;;;;;137236;1275;22379;-77
2024/03/05 15:10:22;;;;;;;;;;;;;;;;;;137262;1275;22322;-76
2024/03/05 15:13:24;;;;;;;;;;;;;;;;;;136932;1275;22607;-77
2024/03/05 15:16:27;;;;;;;;;;;;;;;;;;137312;1275;22962;-77
2024/03/05 15:19:32;;;;;;;;;;;;;;;;;;137305;1275;22316;-78
2024/03/05 15:22:35;;;;;;;;;;;;;;;;;;137394;1275;22365;-77
2024/03/05 15:25:38;;;;;;;;;;;;;;;;;;137412;1275;22268;-75
2024/03/05 15:28:40;;;;;;;;;;;;;;;;;;137372;1275;22792;-77
2024/03/05 15:31:44;;;;;;;;;;;;;;;;;;137415;1275;22434;-75
2024/03/05 15:34:47;;;;;;;;;;;;;;;;;;137310;1275;22749;-74
2024/03/05 15:37:49;;;;;;;;;;;;;;;;;;137212;1275;22981;-76
2024/03/05 15:40:52;;;;;;;;;;;;;;;;;;137296;1275;22256;-76
2024/03/05 15:43:54;;;;;;;;;;;;;;;;;;137264;1275;22342;-77
2024/03/05 15:46:57;;;;;;;;;;;;;;;;;;137261;1275;22350;-78
2024/03/05 15:50:00;;;;;;;;;;;;;;;;;;137292;1275;22400;-77
2024/03/05 15:53:03;;;;;;;;;;;;;;;;;;137307;1271;22314;-76
2024/03/05 15:56:11;;;;;;;;;;;;;;;;;;137306;1275;22732;-78
2024/03/05 16:02:35;;;;;;;;;;;;;;;;;;137300;1275;22465;-77
2024/03/05 16:05:37;;;;;;;;;;;;;;;;;;137257;1275;22754;-76
2024/03/05 16:08:40;;;;;;;;;;;;;;;;;;137224;1275;22388;-76
2024/03/05 16:11:43;;;;;;;;;;;;;;;;;;137295;1275;23081;-77
2024/03/05 16:14:46;;;;;;;;;;;;;;;;;;137348;1275;22950;-78
2024/03/05 16:17:52;;;;;;;;;;;;;;;;;;137290;1275;22346;-76
2024/03/05 16:21:00;;;;;;;;;;;;;;;;;;137324;1275;22823;-76
2024/03/05 16:24:04;;;;;;;;;;;;;;;;;;137297;1275;22417;-78
2024/03/05 16:27:07;;;;;;;;;;;;;;;;;;137080;1275;22567;-79
2024/03/05 16:30:10;;;;;;;;;;;;;;;;;;137381;1275;22348;-76
2024/03/05 16:33:12;;;;;;;;;;;;;;;;;;137289;1275;23245;-77
2024/03/05 16:36:15;;;;;;;;;;;;;;;;;;137275;1275;22694;-76
2024/03/05 16:39:21;;;;;;;;;;;;;;;;;;137246;1273;22746;-76
2024/03/05 16:42:24;;;;;;;;;;;;;;;;;;137048;1275;24177;-76
2024/03/05 16:45:26;;;;;;;;;;;;;;;;;;136965;1275;22539;-77
2024/03/05 16:48:29;;;;;;;;;;;;;;;;;;137346;1268;22408;-77
2024/03/05 16:51:31;;;;;;;;;;;;;;;;;;137295;1275;22357;-76
2024/03/05 16:54:34;;;;;;;;;;;;;;;;;;137346;1275;23313;-77
2024/03/05 16:57:37;;;;;;;;;;;;;;;;;;137332;1275;22434;-77
2024/03/05 17:00:46;;;;;;;;;;;;;;;;;;137290;1275;22464;-77
2024/03/05 17:03:50;;;;;;;;;;;;;;;;;;137342;1275;22453;-78
2024/03/05 17:06:56;;;;;;;;;;;;;;;;;;137412;1275;22312;-79
2024/03/05 17:10:00;;;;;;;;;;;;;;;;;;137319;1275;22717;-78
2024/03/05 17:13:05;;;;;;;;;;;;;;;;;;137318;1275;22353;-78
2024/03/05 17:16:11;;;;;;;;;;;;;;;;;;137487;1274;22752;-78
2024/03/05 17:19:13;;;;;;;;;;;;;;;;;;137480;1274;22284;-78
2024/03/05 17:22:16;;;;;;;;;;;;;;;;;;137446;1274;22361;-79
2024/03/05 17:25:18;;;;;;;;;;;;;;;;;;137437;1274;23029;-79
2024/03/05 17:28:21;;;;;;;;;;;;;;;;;;137147;1274;22594;-78
2024/03/05 17:31:24;;;;;;;;;;;;;;;;;;137427;1274;23092;-78
2024/03/05 17:34:26;;;;;;;;;;;;;;;;;;137531;1274;22395;-79
2024/03/05 17:37:29;;;;;;;;;;;;;;;;;;137525;1274;22329;-77
2024/03/05 17:40:32;;;;;;;;;;;;;;;;;;137472;1274;22277;-78
2024/03/05 17:43:35;;;;;;;;;;;;;;;;;;137507;1274;22319;-78
2024/03/05 17:46:39;;;;;;;;;;;;;;;;;;137551;1274;22390;-78
2024/03/05 17:49:41;;;;;;;;;;;;;;;;;;137502;1274;22362;-77
2024/03/05 17:52:44;;;;;;;;;;;;;;;;;;137476;1274;22369;-77
2024/03/05 17:55:49;;;;;;;;;;;;;;;;;;137437;1274;22269;-78
2024/03/05 17:58:51;;;;;;;;;;;;;;;;;;137510;1274;22400;-78
2024/03/05 18:01:54;;;;;;;;;;;;;;;;;;137424;1274;22896;-78
2024/03/05 18:04:56;;;;;;;;;;;;;;;;;;137456;1274;22349;-78
2024/03/05 18:07:59;;;;;;;;;;;;;;;;;;137441;1274;22504;-79
2024/03/05 18:11:02;;;;;;;;;;;;;;;;;;137298;1274;22519;-78
2024/03/05 18:14:04;;;;;;;;;;;;;;;;;;137191;1274;22529;-79
2024/03/05 18:17:09;;;;;;;;;;;;;;;;;;137014;1274;22585;-77
2024/03/05 18:20:11;;;;;;;;;;;;;;;;;;137628;1274;22475;-78
2024/03/05 18:23:14;;;;;;;;;;;;;;;;;;137726;1274;22431;-80
2024/03/05 18:26:17;;;;;;;;;;;;;;;;;;137757;1274;22447;-78
2024/03/05 18:29:20;;;;;;;;;;;;;;;;;;137674;1274;22426;-78
2024/03/05 18:32:25;;;;;;;;;;;;;;;;;;137467;1274;22545;-77
2024/03/05 18:35:28;;;;;;;;;;;;;;;;;;137317;1274;22498;-78
2024/03/05 18:38:30;;;;;;;;;;;;;;;;;;137170;1274;23099;-79
2024/03/05 18:41:33;;;;;;;;;;;;;;;;;;137516;1274;22470;-77
2024/03/05 18:44:35;;;;;;;;;;;;;;;;;;137488;1274;22410;-78
2024/03/05 18:47:38;;;;;;;;;;;;;;;;;;137442;1274;22356;-76
2024/03/05 18:50:40;;;;;;;;;;;;;;;;;;137181;1274;22618;-77
2024/03/05 18:53:43;;;;;;;;;;;;;;;;;;137521;1274;22339;-79
2024/03/05 18:56:48;;;;;;;;;;;;;;;;;;137410;1274;22599;-80
2024/03/05 18:59:50;;;;;;;;;;;;;;;;;;137532;1274;22364;-79
2024/03/05 19:02:53;;;;;;;;;;;;;;;;;;137437;1274;22494;-78
2024/03/05 19:05:56;;;;;;;;;;;;;;;;;;137242;1274;22545;-79
2024/03/05 19:08:58;;;;;;;;;;;;;;;;;;137067;1274;22534;-79
2024/03/05 19:12:02;;;;;;;;;;;;;;;;;;137359;1274;22586;-79
2024/03/05 19:15:07;;;;;;;;;;;;;;;;;;137153;1274;22534;-79
2024/03/05 19:18:09;;;;;;;;;;;;;;;;;;137228;1274;22949;-78
2024/03/05 19:21:12;;;;;;;;;;;;;;;;;;137247;1272;22916;-79
2024/03/05 19:24:14;;;;;;;;;;;;;;;;;;137421;1274;22975;-79
2024/03/05 19:27:18;;;;;;;;;;;;;;;;;;137232;1274;22886;-79
2024/03/05 19:30:21;;;;;;;;;;;;;;;;;;137218;1274;22591;-80
2024/03/05 19:33:24;;;;;;;;;;;;;;;;;;137389;1274;22495;-78
2024/03/05 19:36:27;;;;;;;;;;;;;;;;;;137473;1272;22310;-78
2024/03/05 19:39:29;;;;;;;;;;;;;;;;;;137462;1274;22372;-77
2024/03/05 19:42:32;;;;;;;;;;;;;;;;;;137351;1274;22367;-76
2024/03/05 19:45:35;;;;;;;;;;;;;;;;;;137416;1272;22748;-76
2024/03/05 19:48:37;;;;;;;;;;;;;;;;;;136920;1274;22901;-76
2024/03/05 19:51:40;;;;;;;;;;;;;;;;;;137088;1274;22537;-77
2024/03/05 19:54:42;;;;;;;;;;;;;;;;;;137360;1274;22490;-76
2024/03/05 19:57:45;;;;;;;;;;;;;;;;;;137383;1274;22334;-76
2024/03/05 20:00:48;;;;;;;;;;;;;;;;;;137379;1274;22429;-76
2024/03/05 20:03:50;;;;;;;;;;;;;;;;;;137329;1274;22382;-76
2024/03/05 20:06:53;;;;;;;;;;;;;;;;;;137387;1274;22275;-75
2024/03/05 20:09:55;;;;;;;;;;;;;;;;;;137403;1274;22247;-76
2024/03/05 20:12:58;;;;;;;;;;;;;;;;;;137358;1274;22996;-75
2024/03/05 20:16:01;;;;;;;;;;;;;;;;;;137399;1274;22361;-75
2024/03/05 20:19:03;;;;;;;;;;;;;;;;;;137369;1274;22346;-76
2024/03/05 20:22:07;;;;;;;;;;;;;;;;;;137304;1274;22575;-77
2024/03/05 20:25:09;;;;;;;;;;;;;;;;;;137322;1274;22556;-77
2024/03/05 20:28:15;;;;;;;;;;;;;;;;;;137364;1274;22500;-77
2024/03/05 20:31:20;;;;;;;;;;;;;;;;;;137374;1274;22397;-77
2024/03/05 20:34:23;;;;;;;;;;;;;;;;;;137420;1274;22365;-77